Time;durP1;ratioP1;P1;durP2;ratioP2;P2;SDS_P1;SDS_P2;PMS_P1;PMS_P2;Temp;Humidity;BMP_temperature;BMP_pressure;BME280_temperature;BME280_humidity;BME280_pressure;Samples;Min_cycle;Max_cycle;Signal;HPM_P1;HPM_P2
2022/10/19 00:02:10;;;;;;;;;8.00;6.33;;;;;;;;5010317;28;47423;-70
2022/10/19 00:04:36;;;;;;;;;8.00;6.25;;;;;;;;5003683;28;45392;-69
2022/10/19 00:07:01;;;;;;;;;6.50;6.50;;;;;;;;5015458;28;45481;-68
2022/10/19 00:09:26;;;;;;;;;5.00;4.00;;;;;;;;5017738;28;45468;-70
2022/10/19 00:11:51;;;;;;;;;6.00;4.25;;;;;;;;5019196;28;45461;-70
2022/10/19 00:14:21;;;;;;;;;8.00;7.67;;;;;;;;5017370;28;45797;-69
2022/10/19 00:16:47;;;;;;;;;7.00;5.75;;;;;;;;5014467;28;45550;-71
2022/10/19 00:19:13;;;;;;;;;5.75;5.25;;;;;;;;5017767;28;45361;-70
2022/10/19 00:21:39;;;;;;;;;7.75;6.00;;;;;;;;5010326;28;48347;-70
2022/10/19 00:24:04;;;;;;;;;6.00;4.25;;;;;;;;4997481;28;45404;-69
2022/10/19 00:26:30;;;;;;;;;10.00;5.75;;;;;;;;4998783;28;45341;-69
2022/10/19 00:28:56;;;;;;;;;7.00;6.00;;;;;;;;5024891;28;45450;-69
2022/10/19 00:31:21;;;;;;;;;7.00;7.00;;;;;;;;5037151;28;46427;-70
2022/10/19 00:33:46;;;;;;;;;9.00;6.50;;;;;;;;5030223;28;45576;-70
2022/10/19 00:36:13;;;;;;;;;10.33;6.67;;;;;;;;5017754;28;45511;-69
2022/10/19 00:38:40;;;;;;;;;8.00;6.00;;;;;;;;5016817;28;46289;-69
2022/10/19 00:41:05;;;;;;;;;13.50;8.00;;;;;;;;5017216;28;46354;-70
2022/10/19 00:43:30;;;;;;;;;11.00;5.25;;;;;;;;5016453;28;45376;-69
2022/10/19 00:45:56;;;;;;;;;12.00;9.00;;;;;;;;5025429;28;45321;-70
2022/10/19 00:48:26;;;;;;;;;8.00;8.00;;;;;;;;5020002;28;45603;-71
2022/10/19 00:50:53;;;;;;;;;12.67;7.00;;;;;;;;5017282;28;45683;-70
2022/10/19 00:53:18;;;;;;;;;7.33;6.00;;;;;;;;5015613;28;45578;-69
2022/10/19 00:55:44;;;;;;;;;10.50;9.00;;;;;;;;5016804;28;45470;-68
2022/10/19 00:58:09;;;;;;;;;11.00;8.00;;;;;;;;5016073;28;45766;-68
2022/10/19 01:00:35;;;;;;;;;7.50;7.50;;;;;;;;5015653;28;45325;-68
2022/10/19 01:03:00;;;;;;;;;8.33;8.33;;;;;;;;5014700;28;45429;-69
2022/10/19 01:05:26;;;;;;;;;9.33;7.67;;;;;;;;5015643;28;45254;-69
2022/10/19 01:07:51;;;;;;;;;9.33;8.00;;;;;;;;5014599;28;45791;-69
2022/10/19 01:10:19;;;;;;;;;9.00;7.00;;;;;;;;5016780;28;45932;-70
2022/10/19 01:13:11;;;;;;;;;9.00;5.67;;;;;;;;5016934;28;45488;-69
2022/10/19 01:15:36;;;;;;;;;12.00;7.33;;;;;;;;5013878;28;45952;-70
2022/10/19 01:18:01;;;;;;;;;6.50;6.50;;;;;;;;5008490;28;45416;-70
2022/10/19 01:20:45;;;;;;;;;12.00;8.00;;;;;;;;5026340;28;46175;-69
2022/10/19 01:23:10;;;;;;;;;12.00;8.33;;;;;;;;5000888;28;45380;-69
2022/10/19 01:25:35;;;;;;;;;7.33;7.33;;;;;;;;5011754;28;45464;-69
2022/10/19 01:28:09;;;;;;;;;10.67;6.67;;;;;;;;5013468;28;45496;-69
2022/10/19 01:30:35;;;;;;;;;14.50;8.00;;;;;;;;5013194;28;45486;-68
2022/10/19 01:33:17;;;;;;;;;7.00;5.33;;;;;;;;5014184;28;45428;-69
2022/10/19 01:36:02;;;;;;;;;12.67;8.00;;;;;;;;5014288;28;45771;-68
2022/10/19 01:38:37;;;;;;;;;8.00;7.67;;;;;;;;5007607;28;45588;-69
2022/10/19 01:41:07;;;;;;;;;7.00;7.00;;;;;;;;5013864;28;47217;-70
2022/10/19 01:43:39;;;;;;;;;7.67;7.00;;;;;;;;5013301;28;45512;-69
2022/10/19 01:46:13;;;;;;;;;8.25;8.00;;;;;;;;5014222;28;45516;-68
2022/10/19 01:48:40;;;;;;;;;6.50;6.50;;;;;;;;5012847;28;45384;-68
2022/10/19 01:51:12;;;;;;;;;13.75;7.50;;;;;;;;5013565;28;47219;-68
2022/10/19 01:53:43;;;;;;;;;8.33;3.67;;;;;;;;5016245;28;45650;-68
2022/10/19 01:56:08;;;;;;;;;6.00;4.50;;;;;;;;5016191;28;45469;-68
2022/10/19 01:58:35;;;;;;;;;8.50;5.75;;;;;;;;5004047;28;45570;-67
2022/10/19 02:01:02;;;;;;;;;8.75;6.00;;;;;;;;5016278;28;45428;-67
2022/10/19 02:03:28;;;;;;;;;7.75;7.00;;;;;;;;5016031;28;45364;-67
2022/10/19 02:05:54;;;;;;;;;7.75;7.50;;;;;;;;5015998;28;45410;-67
2022/10/19 02:08:22;;;;;;;;;14.00;5.50;;;;;;;;5014818;28;45444;-67
2022/10/19 02:10:47;;;;;;;;;5.00;5.00;;;;;;;;5016361;28;46261;-67
2022/10/19 02:13:14;;;;;;;;;5.50;5.00;;;;;;;;5014356;28;45700;-68
2022/10/19 02:15:41;;;;;;;;;6.25;6.00;;;;;;;;5016122;28;45424;-68
2022/10/19 02:18:07;;;;;;;;;8.25;6.00;;;;;;;;5009250;28;45568;-68
2022/10/19 02:20:34;;;;;;;;;7.00;6.00;;;;;;;;5013130;28;46592;-67
2022/10/19 02:22:59;;;;;;;;;8.75;5.50;;;;;;;;5011689;28;45339;-71
2022/10/19 02:25:25;;;;;;;;;8.25;5.25;;;;;;;;5015998;28;45387;-70
2022/10/19 02:27:50;;;;;;;;;8.50;7.00;;;;;;;;5015273;28;45662;-69
2022/10/19 02:30:16;;;;;;;;;9.00;6.00;;;;;;;;5015213;28;46143;-65
2022/10/19 02:32:42;;;;;;;;;5.25;5.25;;;;;;;;5013352;28;45393;-67
2022/10/19 02:35:07;;;;;;;;;11.75;6.75;;;;;;;;5015505;28;45381;-72
2022/10/19 02:37:33;;;;;;;;;6.75;5.75;;;;;;;;5015171;28;45753;-71
2022/10/19 02:39:58;;;;;;;;;7.00;5.50;;;;;;;;5014115;28;45819;-70
2022/10/19 02:42:27;;;;;;;;;6.00;5.50;;;;;;;;5015493;28;45419;-69
2022/10/19 02:44:58;;;;;;;;;7.00;6.00;;;;;;;;5015804;28;45439;-69
2022/10/19 02:47:23;;;;;;;;;5.00;5.00;;;;;;;;5014772;28;45596;-67
2022/10/19 02:49:49;;;;;;;;;7.00;6.00;;;;;;;;5014827;28;46586;-67
2022/10/19 02:52:14;;;;;;;;;8.50;5.25;;;;;;;;5014674;28;45660;-67
2022/10/19 02:54:41;;;;;;;;;9.75;6.25;;;;;;;;5014444;28;45746;-67
2022/10/19 02:57:13;;;;;;;;;7.75;6.25;;;;;;;;5015558;28;45502;-68
2022/10/19 02:59:39;;;;;;;;;9.50;4.25;;;;;;;;5014346;28;45437;-68
2022/10/19 03:02:04;;;;;;;;;6.00;5.00;;;;;;;;5013078;28;46070;-68
2022/10/19 03:04:29;;;;;;;;;5.50;5.00;;;;;;;;5015363;28;45570;-68
2022/10/19 03:06:54;;;;;;;;;7.25;6.50;;;;;;;;5015426;28;45514;-74
2022/10/19 03:09:19;;;;;;;;;5.50;5.50;;;;;;;;5014937;28;45433;-70
2022/10/19 03:11:45;;;;;;;;;5.50;5.00;;;;;;;;5013422;28;45397;-70
2022/10/19 03:14:10;;;;;;;;;7.50;7.50;;;;;;;;5015346;28;45462;-70
2022/10/19 03:16:35;;;;;;;;;7.00;5.00;;;;;;;;5013791;28;45322;-69
2022/10/19 03:19:00;;;;;;;;;5.00;5.00;;;;;;;;4995310;28;45378;-70
2022/10/19 03:21:25;;;;;;;;;7.25;5.00;;;;;;;;5000486;28;45413;-72
2022/10/19 03:23:51;;;;;;;;;6.75;5.25;;;;;;;;4996814;28;45305;-69
2022/10/19 03:26:16;;;;;;;;;10.00;5.00;;;;;;;;5005952;28;45364;-69
2022/10/19 03:28:42;;;;;;;;;6.75;5.00;;;;;;;;5014823;28;47455;-69
2022/10/19 03:31:07;;;;;;;;;9.50;5.75;;;;;;;;5018291;28;45356;-68
2022/10/19 03:33:32;;;;;;;;;11.25;6.25;;;;;;;;5017186;28;45304;-68
2022/10/19 03:36:19;;;;;;;;;7.00;6.50;;;;;;;;5018485;28;45747;-68
2022/10/19 03:38:44;;;;;;;;;9.50;6.00;;;;;;;;5018310;28;45723;-68
2022/10/19 03:41:10;;;;;;;;;7.25;7.00;;;;;;;;5018300;28;45304;-68
2022/10/19 03:43:35;;;;;;;;;8.00;6.00;;;;;;;;5015896;28;45873;-68
2022/10/19 03:46:00;;;;;;;;;9.00;7.75;;;;;;;;5018495;28;45407;-68
2022/10/19 03:48:26;;;;;;;;;9.50;8.25;;;;;;;;5017972;28;46281;-68
2022/10/19 03:51:01;;;;;;;;;7.50;7.50;;;;;;;;5017995;28;45463;-71
2022/10/19 03:53:27;;;;;;;;;9.00;6.25;;;;;;;;5017831;28;45426;-71
2022/10/19 03:55:58;;;;;;;;;10.00;7.00;;;;;;;;5018399;28;45428;-71
2022/10/19 03:58:24;;;;;;;;;10.50;9.75;;;;;;;;5016137;28;45550;-71
2022/10/19 04:00:49;;;;;;;;;7.75;7.00;;;;;;;;5016400;28;45503;-70
2022/10/19 04:03:14;;;;;;;;;10.25;6.00;;;;;;;;5016838;28;45521;-72
2022/10/19 04:05:39;;;;;;;;;12.00;8.67;;;;;;;;5018219;28;45565;-72
2022/10/19 04:08:04;;;;;;;;;9.50;6.50;;;;;;;;5017754;28;46501;-72
2022/10/19 04:10:30;;;;;;;;;7.50;7.50;;;;;;;;5017788;28;45341;-72
2022/10/19 04:12:55;;;;;;;;;12.00;8.25;;;;;;;;5018145;28;45341;-71
2022/10/19 04:15:20;;;;;;;;;12.25;7.50;;;;;;;;5017559;28;45401;-71
2022/10/19 04:17:46;;;;;;;;;6.25;6.25;;;;;;;;5014199;28;48367;-72
2022/10/19 04:20:11;;;;;;;;;8.00;8.00;;;;;;;;5016511;28;45337;-72
2022/10/19 04:22:36;;;;;;;;;10.00;8.00;;;;;;;;5011264;28;45387;-72
2022/10/19 04:25:01;;;;;;;;;10.00;8.25;;;;;;;;5001136;28;45393;-72
2022/10/19 04:27:26;;;;;;;;;8.75;8.75;;;;;;;;5017503;28;46305;-72
2022/10/19 04:29:52;;;;;;;;;11.50;11.00;;;;;;;;5017365;28;45354;-73
2022/10/19 04:32:17;;;;;;;;;13.75;9.25;;;;;;;;5016917;28;45440;-73
2022/10/19 04:34:42;;;;;;;;;10.00;10.00;;;;;;;;5016072;28;45388;-73
2022/10/19 04:37:07;;;;;;;;;9.00;9.00;;;;;;;;5015583;28;45580;-72
2022/10/19 04:39:33;;;;;;;;;12.75;9.00;;;;;;;;5017466;28;45409;-72
2022/10/19 04:41:58;;;;;;;;;12.50;7.50;;;;;;;;5016650;28;45431;-68
2022/10/19 04:44:23;;;;;;;;;12.00;10.00;;;;;;;;5017741;28;45749;-70
2022/10/19 04:46:48;;;;;;;;;12.50;9.25;;;;;;;;5016888;28;46273;-70
2022/10/19 04:49:13;;;;;;;;;9.25;9.00;;;;;;;;5016171;28;45752;-70
2022/10/19 04:51:39;;;;;;;;;9.50;6.25;;;;;;;;5016616;28;45518;-68
2022/10/19 04:54:04;;;;;;;;;10.25;9.75;;;;;;;;5017264;28;45579;-69
2022/10/19 04:56:31;;;;;;;;;12.00;10.25;;;;;;;;5016875;28;45426;-70
2022/10/19 04:58:57;;;;;;;;;14.75;10.25;;;;;;;;5016278;28;45340;-71
2022/10/19 05:01:23;;;;;;;;;13.75;10.50;;;;;;;;5017245;28;45339;-70
2022/10/19 05:03:52;;;;;;;;;14.25;11.50;;;;;;;;5017075;28;45408;-71
2022/10/19 05:06:17;;;;;;;;;10.00;9.25;;;;;;;;5015657;28;46669;-71
2022/10/19 05:08:42;;;;;;;;;15.25;14.00;;;;;;;;5016740;28;45396;-70
2022/10/19 05:11:09;;;;;;;;;14.50;11.75;;;;;;;;5017128;28;45278;-71
2022/10/19 05:13:35;;;;;;;;;13.00;10.00;;;;;;;;5016736;28;45768;-71
2022/10/19 05:16:02;;;;;;;;;14.50;10.50;;;;;;;;5016929;28;46452;-72
2022/10/19 05:18:27;;;;;;;;;17.33;12.33;;;;;;;;5003064;28;45447;-72
2022/10/19 05:20:59;;;;;;;;;15.67;11.00;;;;;;;;4997002;28;45735;-73
2022/10/19 05:23:24;;;;;;;;;15.00;12.67;;;;;;;;4996677;28;45515;-73
2022/10/19 05:25:57;;;;;;;;;17.67;13.00;;;;;;;;5014983;28;46665;-74
2022/10/19 05:28:22;;;;;;;;;16.67;14.33;;;;;;;;5016331;28;45502;-74
2022/10/19 05:30:47;;;;;;;;;17.33;13.33;;;;;;;;5015513;28;45452;-74
2022/10/19 05:33:12;;;;;;;;;21.00;14.67;;;;;;;;5016182;28;45401;-75
2022/10/19 05:35:38;;;;;;;;;13.33;13.33;;;;;;;;5015674;28;45380;-71
2022/10/19 05:38:03;;;;;;;;;15.00;14.00;;;;;;;;5015975;28;45272;-74
2022/10/19 05:40:28;;;;;;;;;15.33;14.67;;;;;;;;5013773;28;46603;-73
2022/10/19 05:42:53;;;;;;;;;16.67;15.00;;;;;;;;5016815;28;45534;-73
2022/10/19 05:45:18;;;;;;;;;15.33;14.00;;;;;;;;5016529;28;45568;-73
2022/10/19 05:47:44;;;;;;;;;20.33;14.33;;;;;;;;5016052;28;45613;-73
2022/10/19 05:50:09;;;;;;;;;16.33;12.67;;;;;;;;5015537;28;45555;-73
2022/10/19 05:52:34;;;;;;;;;17.33;14.00;;;;;;;;5015361;28;45987;-72
2022/10/19 05:54:59;;;;;;;;;16.00;15.00;;;;;;;;5015984;28;45517;-73
2022/10/19 05:57:25;;;;;;;;;19.33;16.00;;;;;;;;5015253;28;45514;-72
2022/10/19 05:59:50;;;;;;;;;19.67;19.00;;;;;;;;5015717;28;45495;-71
2022/10/19 06:02:15;;;;;;;;;18.00;16.33;;;;;;;;5016391;28;45541;-73
2022/10/19 06:04:40;;;;;;;;;17.00;13.33;;;;;;;;5016143;28;46521;-74
2022/10/19 06:07:05;;;;;;;;;19.33;16.33;;;;;;;;5015287;28;45391;-75
2022/10/19 06:09:34;;;;;;;;;23.00;18.33;;;;;;;;5015365;28;45624;-74
2022/10/19 06:12:00;;;;;;;;;20.33;15.33;;;;;;;;5016446;28;45462;-74
2022/10/19 06:14:25;;;;;;;;;24.33;17.67;;;;;;;;5013850;28;45372;-74
2022/10/19 06:16:51;;;;;;;;;25.33;21.33;;;;;;;;5016196;28;45333;-74
2022/10/19 06:19:16;;;;;;;;;15.33;15.33;;;;;;;;4996574;28;45924;-72
2022/10/19 06:21:42;;;;;;;;;18.00;15.33;;;;;;;;5015011;28;46898;-73
2022/10/19 06:24:09;;;;;;;;;16.00;13.33;;;;;;;;5002000;28;45699;-72
2022/10/19 06:26:34;;;;;;;;;23.67;18.33;;;;;;;;5011531;28;45750;-73
2022/10/19 06:29:00;;;;;;;;;18.00;15.00;;;;;;;;5015913;28;45431;-68
2022/10/19 06:31:26;;;;;;;;;15.33;12.33;;;;;;;;5013045;28;45403;-66
2022/10/19 06:33:52;;;;;;;;;22.00;16.67;;;;;;;;5015474;28;46636;-66
2022/10/19 06:36:18;;;;;;;;;18.67;18.33;;;;;;;;5015700;28;45400;-72
2022/10/19 06:38:44;;;;;;;;;25.00;17.00;;;;;;;;5015455;28;45521;-66
2022/10/19 06:41:10;;;;;;;;;22.00;18.33;;;;;;;;5015516;28;45460;-69
2022/10/19 06:43:35;;;;;;;;;22.00;17.00;;;;;;;;5014716;28;47503;-67
2022/10/19 06:46:04;;;;;;;;;23.00;19.00;;;;;;;;5013870;28;45383;-70
2022/10/19 06:48:29;;;;;;;;;22.33;17.33;;;;;;;;5015478;28;45428;-68
2022/10/19 06:50:56;;;;;;;;;21.00;17.00;;;;;;;;5015429;28;45483;-68
2022/10/19 06:53:21;;;;;;;;;22.00;16.00;;;;;;;;5015468;28;46241;-67
2022/10/19 06:55:46;;;;;;;;;27.00;21.00;;;;;;;;5015383;28;45503;-67
2022/10/19 06:58:11;;;;;;;;;19.67;17.00;;;;;;;;5015493;28;45398;-66
2022/10/19 07:00:36;;;;;;;;;23.67;20.00;;;;;;;;5014353;28;45507;-66
2022/10/19 07:03:02;;;;;;;;;20.33;20.33;;;;;;;;5013732;28;46465;-69
2022/10/19 07:05:27;;;;;;;;;25.00;19.00;;;;;;;;5016203;28;45668;-65
2022/10/19 07:07:52;;;;;;;;;22.33;18.00;;;;;;;;5017347;28;46729;-67
2022/10/19 07:10:17;;;;;;;;;21.67;19.00;;;;;;;;5018041;28;45331;-66
2022/10/19 07:12:42;;;;;;;;;26.00;24.00;;;;;;;;5018298;28;45463;-71
2022/10/19 07:15:08;;;;;;;;;21.67;15.00;;;;;;;;5018747;28;45325;-73
2022/10/19 07:17:33;;;;;;;;;23.00;20.33;;;;;;;;5016341;28;45718;-69
2022/10/19 07:19:58;;;;;;;;;21.67;21.33;;;;;;;;5003117;28;45370;-70
2022/10/19 07:22:24;;;;;;;;;23.00;16.67;;;;;;;;5016920;28;45487;-68
2022/10/19 07:24:49;;;;;;;;;18.33;18.33;;;;;;;;5012522;28;46365;-67
2022/10/19 07:27:14;;;;;;;;;24.67;21.00;;;;;;;;5018597;28;45423;-68
2022/10/19 07:29:40;;;;;;;;;18.67;17.33;;;;;;;;5018531;28;45420;-72
2022/10/19 07:32:05;;;;;;;;;17.00;14.00;;;;;;;;5017569;28;45653;-70
2022/10/19 07:34:30;;;;;;;;;26.33;23.00;;;;;;;;5018182;28;45452;-67
2022/10/19 07:36:55;;;;;;;;;21.00;17.67;;;;;;;;5016042;28;45468;-76
2022/10/19 07:39:21;;;;;;;;;24.67;24.67;;;;;;;;5018478;28;45456;-70
2022/10/19 07:41:46;;;;;;;;;21.33;20.33;;;;;;;;5017598;28;45631;-78
2022/10/19 07:44:13;;;;;;;;;25.00;18.33;;;;;;;;5016303;28;46704;-78
2022/10/19 07:46:38;;;;;;;;;25.33;20.00;;;;;;;;5018277;28;45432;-80
2022/10/19 07:49:06;;;;;;;;;25.33;21.00;;;;;;;;5018457;28;45521;-78
2022/10/19 07:51:31;;;;;;;;;20.67;16.00;;;;;;;;5016247;28;46191;-78
2022/10/19 07:53:57;;;;;;;;;20.67;17.33;;;;;;;;5016040;28;45514;-77
2022/10/19 07:56:23;;;;;;;;;21.33;19.00;;;;;;;;5018047;28;45416;-77
2022/10/19 07:58:49;;;;;;;;;23.33;20.33;;;;;;;;5017159;28;45531;-76
2022/10/19 08:01:16;;;;;;;;;25.33;19.00;;;;;;;;5017766;28;47111;-75
2022/10/19 08:03:41;;;;;;;;;23.00;19.00;;;;;;;;5018123;28;45362;-74
2022/10/19 08:06:08;;;;;;;;;23.67;21.00;;;;;;;;5017721;28;45372;-75
2022/10/19 08:08:34;;;;;;;;;19.00;19.00;;;;;;;;5017196;28;45483;-77
2022/10/19 08:11:28;;;;;;;;;24.00;21.33;;;;;;;;5014506;28;47132;-81
2022/10/19 08:13:54;;;;;;;;;26.33;22.67;;;;;;;;5014569;28;45507;-68
2022/10/19 08:16:19;;;;;;;;;28.33;21.33;;;;;;;;5010916;28;45715;-71
2022/10/19 08:18:44;;;;;;;;;23.50;18.50;;;;;;;;5006408;28;45430;-71
2022/10/19 08:21:09;;;;;;;;;22.00;20.67;;;;;;;;4995359;28;46217;-68
2022/10/19 08:23:35;;;;;;;;;22.33;19.00;;;;;;;;4995631;28;45573;-70
2022/10/19 08:26:00;;;;;;;;;24.67;23.00;;;;;;;;4995266;28;45467;-68
2022/10/19 08:28:25;;;;;;;;;21.67;19.33;;;;;;;;5008640;28;45619;-68
2022/10/19 08:30:50;;;;;;;;;24.00;21.00;;;;;;;;5014848;28;46589;-68
2022/10/19 08:33:16;;;;;;;;;21.67;19.33;;;;;;;;5014632;28;45831;-69
2022/10/19 08:35:41;;;;;;;;;25.67;22.00;;;;;;;;5014354;28;45411;-68
2022/10/19 08:38:06;;;;;;;;;27.33;23.00;;;;;;;;5015539;28;45464;-67
2022/10/19 08:40:31;;;;;;;;;26.67;18.67;;;;;;;;5012608;28;46749;-66
2022/10/19 08:43:00;;;;;;;;;26.00;19.67;;;;;;;;5005295;28;45867;-67
2022/10/19 08:45:32;;;;;;;;;29.33;26.00;;;;;;;;5013355;28;45512;-68
2022/10/19 08:48:03;;;;;;;;;26.00;23.33;;;;;;;;5014867;28;45442;-67
2022/10/19 08:50:35;;;;;;;;;31.33;27.33;;;;;;;;5014184;28;45502;-67
2022/10/19 08:53:02;;;;;;;;;19.67;18.67;;;;;;;;5015708;28;45732;-67
2022/10/19 08:55:54;;;;;;;;;37.33;29.67;;;;;;;;5016698;28;45523;-67
2022/10/19 08:58:26;;;;;;;;;26.67;20.67;;;;;;;;5008342;28;45440;-67
2022/10/19 09:00:58;;;;;;;;;20.00;20.00;;;;;;;;4997134;28;46256;-67
2022/10/19 09:03:43;;;;;;;;;22.67;20.33;;;;;;;;5007328;28;45383;-68
2022/10/19 09:06:21;;;;;;;;;25.00;20.00;;;;;;;;5017064;28;45416;-68
2022/10/19 09:08:47;;;;;;;;;30.00;25.67;;;;;;;;5016830;28;45550;-69
2022/10/19 09:11:13;;;;;;;;;27.67;22.67;;;;;;;;5013426;28;46072;-66
2022/10/19 09:13:41;;;;;;;;;33.00;26.33;;;;;;;;5016853;28;45437;-65
2022/10/19 09:16:10;;;;;;;;;23.67;22.67;;;;;;;;5017128;28;45473;-65
2022/10/19 09:18:35;;;;;;;;;27.33;23.00;;;;;;;;5009678;28;45462;-70
2022/10/19 09:21:08;;;;;;;;;23.33;21.33;;;;;;;;5011560;28;45535;-67
2022/10/19 09:23:39;;;;;;;;;24.00;19.00;;;;;;;;5013361;28;45518;-64
2022/10/19 09:26:10;;;;;;;;;30.67;26.33;;;;;;;;5005564;28;45393;-72
2022/10/19 09:28:54;;;;;;;;;24.33;20.00;;;;;;;;5014971;28;45629;-72
2022/10/19 09:31:39;;;;;;;;;25.33;22.00;;;;;;;;5014819;28;46089;-72
2022/10/19 09:34:12;;;;;;;;;30.67;24.33;;;;;;;;5015723;28;45421;-69
2022/10/19 09:36:41;;;;;;;;;27.33;23.67;;;;;;;;5016700;28;45442;-69
2022/10/19 09:39:09;;;;;;;;;24.67;19.67;;;;;;;;5016146;28;45491;-65
2022/10/19 09:41:35;;;;;;;;;28.67;23.67;;;;;;;;5015243;28;46747;-71
2022/10/19 09:44:00;;;;;;;;;27.00;25.67;;;;;;;;5016295;28;45503;-68
2022/10/19 09:46:26;;;;;;;;;25.33;23.33;;;;;;;;5013774;28;45470;-69
2022/10/19 09:48:51;;;;;;;;;32.33;25.33;;;;;;;;5013090;28;45357;-72
2022/10/19 09:51:17;;;;;;;;;25.33;20.00;;;;;;;;5014310;28;46491;-70
2022/10/19 09:53:43;;;;;;;;;35.33;25.67;;;;;;;;5016490;28;45476;-68
2022/10/19 09:56:16;;;;;;;;;26.67;21.33;;;;;;;;5015660;28;45630;-69
2022/10/19 09:58:46;;;;;;;;;25.67;23.67;;;;;;;;5015276;28;45476;-72
2022/10/19 10:01:27;;;;;;;;;29.67;24.00;;;;;;;;5010109;28;48243;-70
2022/10/19 10:04:03;;;;;;;;;24.67;21.33;;;;;;;;5014087;28;45588;-74
2022/10/19 10:06:28;;;;;;;;;21.00;19.33;;;;;;;;5005087;28;45170;-79
2022/10/19 10:08:57;;;;;;;;;23.00;18.00;;;;;;;;5014007;28;45588;-72
2022/10/19 10:11:33;;;;;;;;;26.00;24.33;;;;;;;;5010773;28;46253;-73
2022/10/19 10:14:02;;;;;;;;;22.67;19.33;;;;;;;;5010044;28;45730;-79
2022/10/19 10:16:29;;;;;;;;;24.33;20.33;;;;;;;;5016417;28;45711;-74
2022/10/19 10:18:54;;;;;;;;;25.33;19.00;;;;;;;;5017325;28;45465;-72
2022/10/19 10:21:34;;;;;;;;;31.00;24.33;;;;;;;;5013035;28;45635;-72
2022/10/19 10:24:15;;;;;;;;;25.67;20.67;;;;;;;;5009954;28;45646;-71
2022/10/19 10:27:01;;;;;;;;;23.67;20.33;;;;;;;;5016085;28;45668;-72
2022/10/19 10:29:26;;;;;;;;;26.67;23.00;;;;;;;;5014772;28;46949;-70
2022/10/19 10:31:59;;;;;;;;;22.67;19.33;;;;;;;;5014222;28;45614;-66
2022/10/19 10:34:38;;;;;;;;;24.00;19.33;;;;;;;;5014763;28;45459;-68
2022/10/19 10:37:04;;;;;;;;;22.67;19.33;;;;;;;;5009514;28;45388;-73
2022/10/19 10:39:30;;;;;;;;;33.00;23.33;;;;;;;;5014104;28;45374;-68
2022/10/19 10:41:59;;;;;;;;;22.67;19.33;;;;;;;;5014274;28;47165;-79
2022/10/19 10:44:29;;;;;;;;;25.00;23.00;;;;;;;;5016128;28;45431;-78
2022/10/19 10:46:56;;;;;;;;;24.33;21.67;;;;;;;;5013745;28;45598;-69
2022/10/19 10:49:23;;;;;;;;;25.67;24.33;;;;;;;;5015900;28;45507;-71
2022/10/19 10:52:00;;;;;;;;;26.33;23.00;;;;;;;;5016573;28;45715;-79
2022/10/19 10:54:26;;;;;;;;;27.67;20.67;;;;;;;;5016920;28;45400;-81
2022/10/19 10:56:57;;;;;;;;;21.33;20.00;;;;;;;;5017005;28;45391;-75
2022/10/19 10:59:29;;;;;;;;;22.00;18.67;;;;;;;;5011718;28;45539;-74
2022/10/19 11:01:57;;;;;;;;;23.67;22.00;;;;;;;;5008202;28;46082;-77
2022/10/19 11:04:27;;;;;;;;;28.67;23.33;;;;;;;;5014483;28;45499;-77
2022/10/19 11:06:55;;;;;;;;;21.33;20.33;;;;;;;;5016536;28;45386;-77
2022/10/19 11:09:24;;;;;;;;;19.33;17.33;;;;;;;;5017211;28;45227;-74
2022/10/19 11:11:54;;;;;;;;;22.00;17.67;;;;;;;;5016496;28;45320;-77
2022/10/19 11:14:38;;;;;;;;;24.00;20.00;;;;;;;;5016497;28;45447;-75
2022/10/19 11:17:05;;;;;;;;;21.67;21.67;;;;;;;;5017040;28;45281;-77
2022/10/19 11:19:35;;;;;;;;;21.00;16.33;;;;;;;;5017076;28;45237;-72
2022/10/19 11:22:18;;;;;;;;;20.67;20.67;;;;;;;;5016117;28;46131;-74
2022/10/19 11:25:22;;;;;;;;;28.33;23.00;;;;;;;;5017967;28;45431;-73
2022/10/19 11:28:10;;;;;;;;;22.67;20.33;;;;;;;;5000266;28;45494;-74
2022/10/19 11:30:39;;;;;;;;;19.67;17.67;;;;;;;;5015378;28;45440;-72
2022/10/19 11:33:17;;;;;;;;;23.67;22.00;;;;;;;;5017498;28;46305;-74
2022/10/19 11:35:42;;;;;;;;;23.33;20.67;;;;;;;;5033758;28;45406;-77
2022/10/19 11:38:07;;;;;;;;;22.00;20.33;;;;;;;;5034375;28;45513;-74
2022/10/19 11:40:36;;;;;;;;;18.33;16.00;;;;;;;;4999494;28;45481;-75
2022/10/19 11:43:05;;;;;;;;;22.33;19.33;;;;;;;;5012622;28;45597;-76
2022/10/19 11:45:30;;;;;;;;;28.00;18.67;;;;;;;;5014166;28;45354;-73
2022/10/19 11:48:15;;;;;;;;;27.67;22.00;;;;;;;;5014177;28;45463;-74
2022/10/19 11:50:47;;;;;;;;;19.33;17.00;;;;;;;;5016072;28;45515;-74
2022/10/19 11:53:22;;;;;;;;;20.00;19.33;;;;;;;;5017369;28;46534;-71
2022/10/19 11:56:06;;;;;;;;;22.67;17.00;;;;;;;;5016938;28;45381;-70
2022/10/19 11:58:38;;;;;;;;;21.33;18.67;;;;;;;;5018481;28;45496;-71
2022/10/19 12:01:03;;;;;;;;;23.00;19.33;;;;;;;;5019317;28;45597;-70
2022/10/19 12:03:28;;;;;;;;;22.67;16.00;;;;;;;;5019479;28;46307;-70
2022/10/19 12:06:02;;;;;;;;;24.67;21.00;;;;;;;;5019373;28;45408;-71
2022/10/19 12:08:40;;;;;;;;;22.00;20.00;;;;;;;;5019598;28;45340;-70
2022/10/19 12:11:22;;;;;;;;;21.33;17.33;;;;;;;;5019829;28;45234;-71
2022/10/19 12:13:53;;;;;;;;;19.33;19.33;;;;;;;;5019034;28;45420;-70
2022/10/19 12:16:20;;;;;;;;;25.33;21.33;;;;;;;;5018917;28;45514;-71
2022/10/19 12:18:47;;;;;;;;;20.67;19.33;;;;;;;;5019240;28;45274;-71
2022/10/19 12:21:23;;;;;;;;;20.33;19.67;;;;;;;;5019130;28;45502;-72
2022/10/19 12:23:49;;;;;;;;;20.33;17.00;;;;;;;;5018280;28;47440;-71
2022/10/19 12:26:15;;;;;;;;;25.33;23.67;;;;;;;;5018829;28;45440;-71
2022/10/19 12:28:43;;;;;;;;;22.00;19.00;;;;;;;;5018620;28;45239;-71
2022/10/19 12:31:09;;;;;;;;;16.00;12.67;;;;;;;;5019082;28;45465;-71
2022/10/19 12:33:53;;;;;;;;;21.33;19.33;;;;;;;;5018942;28;46449;-71
2022/10/19 12:36:27;;;;;;;;;23.33;17.33;;;;;;;;5018889;28;45391;-71
2022/10/19 12:39:04;;;;;;;;;22.67;20.33;;;;;;;;5018748;28;45543;-71
2022/10/19 12:41:32;;;;;;;;;17.33;17.33;;;;;;;;5019014;28;45422;-71
2022/10/19 12:44:03;;;;;;;;;22.00;19.00;;;;;;;;5018536;28;46338;-71
2022/10/19 12:46:31;;;;;;;;;19.67;18.33;;;;;;;;5019060;28;45439;-71
2022/10/19 12:49:15;;;;;;;;;22.67;20.33;;;;;;;;5018679;28;45304;-71
2022/10/19 12:51:45;;;;;;;;;20.33;15.67;;;;;;;;5019251;28;45321;-72
2022/10/19 12:54:11;;;;;;;;;17.67;17.67;;;;;;;;5018659;28;46608;-72
2022/10/19 12:56:49;;;;;;;;;18.67;15.67;;;;;;;;5018651;28;45320;-72
2022/10/19 12:59:22;;;;;;;;;22.67;17.67;;;;;;;;5018281;28;45488;-71
2022/10/19 13:01:47;;;;;;;;;16.33;13.33;;;;;;;;5017551;28;45432;-69
2022/10/19 13:04:26;;;;;;;;;23.00;18.33;;;;;;;;5018573;28;45408;-69
2022/10/19 13:07:03;;;;;;;;;20.00;15.33;;;;;;;;5018647;28;45293;-69
2022/10/19 13:09:28;;;;;;;;;22.00;19.00;;;;;;;;5018266;28;45253;-69
2022/10/19 13:12:12;;;;;;;;;14.67;13.00;;;;;;;;5018627;28;45403;-69
2022/10/19 13:14:48;;;;;;;;;19.33;17.67;;;;;;;;5017183;28;46436;-69
2022/10/19 13:17:32;;;;;;;;;24.67;17.67;;;;;;;;5018567;28;45352;-70
2022/10/19 13:20:12;;;;;;;;;23.00;17.00;;;;;;;;4998879;28;45433;-73
2022/10/19 13:22:37;;;;;;;;;17.67;16.67;;;;;;;;4998751;28;45370;-73
2022/10/19 13:25:15;;;;;;;;;24.33;19.67;;;;;;;;4998213;28;46084;-69
2022/10/19 13:27:40;;;;;;;;;20.67;18.00;;;;;;;;5008176;28;45470;-71
2022/10/19 13:30:25;;;;;;;;;19.33;16.00;;;;;;;;5018169;28;45360;-70
2022/10/19 13:32:50;;;;;;;;;18.00;17.67;;;;;;;;5018306;28;45408;-69
2022/10/19 13:35:32;;;;;;;;;22.67;14.67;;;;;;;;5018032;28;45384;-74
2022/10/19 13:38:09;;;;;;;;;15.00;14.67;;;;;;;;5017077;28;45517;-76
2022/10/19 13:40:47;;;;;;;;;14.33;11.33;;;;;;;;5018026;28;45503;-75
2022/10/19 13:43:17;;;;;;;;;22.00;15.33;;;;;;;;5018499;28;45263;-75
2022/10/19 13:45:42;;;;;;;;;15.67;14.67;;;;;;;;5017629;28;45467;-74
2022/10/19 13:48:15;;;;;;;;;17.00;15.67;;;;;;;;5017715;28;45495;-75
2022/10/19 13:50:51;;;;;;;;;21.33;15.33;;;;;;;;5018426;28;45329;-74
2022/10/19 13:53:37;;;;;;;;;26.00;16.67;;;;;;;;5018095;28;45346;-77
2022/10/19 13:56:21;;;;;;;;;19.00;17.33;;;;;;;;5016669;28;46320;-72
2022/10/19 13:59:12;;;;;;;;;18.33;15.67;;;;;;;;5008290;28;45531;-73
2022/10/19 14:01:56;;;;;;;;;19.00;15.00;;;;;;;;5016694;28;45479;-70
2022/10/19 14:04:39;;;;;;;;;20.67;15.67;;;;;;;;5019430;28;45393;-78
2022/10/19 14:07:10;;;;;;;;;21.00;14.33;;;;;;;;5016156;28;46458;-77
2022/10/19 14:09:38;;;;;;;;;19.00;16.00;;;;;;;;5017492;28;45222;-70
2022/10/19 14:12:22;;;;;;;;;22.67;21.67;;;;;;;;5005412;28;45400;-76
2022/10/19 14:14:47;;;;;;;;;20.67;13.00;;;;;;;;5017174;28;45412;-71
2022/10/19 14:17:15;;;;;;;;;17.33;13.67;;;;;;;;5016992;28;45444;-75
2022/10/19 14:19:41;;;;;;;;;15.33;13.00;;;;;;;;5017152;28;45623;-74
2022/10/19 14:22:17;;;;;;;;;18.33;16.33;;;;;;;;5017508;28;45451;-74
2022/10/19 14:24:42;;;;;;;;;18.67;17.67;;;;;;;;5017675;28;45417;-74
2022/10/19 14:27:14;;;;;;;;;21.00;15.00;;;;;;;;5016612;28;47128;-70
2022/10/19 14:29:44;;;;;;;;;18.33;15.00;;;;;;;;5016571;28;45364;-72
2022/10/19 14:32:10;;;;;;;;;22.00;17.00;;;;;;;;5017156;28;45305;-77
2022/10/19 14:34:43;;;;;;;;;21.00;19.67;;;;;;;;5017660;28;45427;-74